Muskegon County Airport

Airport
ICAO code: 
KMKG
Summary
ICAO Region: 
NAM
Territory: 
Location: 
Muskegon, Michigan,
Coordinates: 
Aerial View: 
43° 10' 9.998" N, 86° 14' 17.002" W
Airport CFIT: 
Altimeter Temperature Error Correction
Airport WX: 
Lake Effect Snow
Metar
Observation
KMKG 060928Z AUTO 27014G22KT 10SM FEW020 BKN031 OVC038 04/M01 A2959 RMK AO2 PK WND 26027/0907 CIG 021 RWY 14 T00391006
Station
Muskegon, Muskegon County Airport
Date/Time
2021-12-06 09:28:00
Wind direction
270°
Wind speed
14 kts
Lowest cloud amount
few clouds
Temperature
3.9°C
Dew point
-0.6°C
Humidity
72%
Weather condition
n/a

Description

Muskegon County Airport is a public use airport located 7 km south of the central business district of Muskegon, in Muskegon County, Michigan.

Climatology

Humid Continental climate (Köppen climate classification Dfb) - Variable weather patterns and a large seasonal temperature variance. Summers are often warm and humid with frequent thunderstorms and winters can be very cold with frequent snowfall and persistent snow cover.

Runways

Designator Length Width Surface Rops
14/32 1524 46 ASP Yes/Yes
6/24 1982 46 ASP Yes/Yes
Airport map: 
Aerial View: 

SKYbrary Partners:

Safety knowledge contributed by: